createdAt,value
2017-05-19T00:01:05.742Z,21.90
2017-05-19T00:03:34.053Z,21.90
2017-05-19T00:06:03.104Z,22.00
2017-05-19T00:08:31.447Z,21.90
2017-05-19T00:10:59.772Z,21.90
2017-05-19T00:13:28.081Z,21.90
2017-05-19T00:15:57.141Z,21.40
2017-05-19T00:18:25.456Z,21.30
2017-05-19T00:20:54.514Z,21.30
2017-05-19T00:23:22.833Z,21.20
2017-05-19T00:25:51.883Z,21.30
2017-05-19T00:28:20.191Z,21.50
2017-05-19T00:30:49.251Z,21.60
2017-05-19T00:33:17.568Z,21.20
2017-05-19T00:35:46.616Z,21.50
2017-05-19T00:38:14.938Z,21.40
2017-05-19T00:40:43.995Z,21.50
2017-05-19T00:43:12.309Z,21.60
2017-05-19T00:45:41.363Z,21.60
2017-05-19T00:48:09.676Z,21.60
2017-05-19T00:50:38.723Z,21.60
2017-05-19T00:53:07.040Z,21.30
2017-05-19T00:55:35.352Z,21.30
2017-05-19T00:58:03.675Z,21.30
2017-05-19T01:00:31.995Z,21.30
2017-05-19T01:03:00.315Z,21.20
2017-05-19T01:05:28.620Z,21.40
2017-05-19T01:07:56.946Z,21.50
2017-05-19T01:10:25.256Z,21.50
2017-05-19T01:12:53.565Z,21.50
2017-05-19T01:15:22.624Z,21.40
2017-05-19T01:17:50.937Z,21.50
2017-05-19T01:20:19.990Z,21.50
2017-05-19T01:22:48.315Z,21.40
2017-05-19T01:25:16.663Z,21.10
2017-05-19T01:27:44.977Z,21.20
2017-05-19T01:30:13.368Z,21.30
2017-05-19T01:32:41.675Z,21.30
2017-05-19T01:35:09.981Z,21.30
2017-05-19T01:37:38.304Z,21.30
2017-05-19T01:40:06.615Z,21.10
2017-05-19T01:42:34.925Z,21.00
2017-05-19T01:45:03.996Z,21.00
2017-05-19T01:47:32.312Z,21.20
2017-05-19T01:50:00.623Z,20.90
2017-05-19T01:52:28.939Z,20.90
2017-05-19T01:54:57.997Z,21.00
2017-05-19T01:57:26.318Z,21.10
2017-05-19T01:59:55.388Z,21.10
2017-05-19T02:02:23.708Z,21.00
2017-05-19T02:04:52.019Z,20.90
2017-05-19T02:07:20.335Z,20.70
2017-05-19T02:09:49.381Z,20.70
2017-05-19T02:12:17.687Z,20.50
2017-05-19T02:14:46.024Z,20.50
2017-05-19T02:17:14.335Z,20.50
2017-05-19T02:19:42.635Z,20.50
2017-05-19T02:22:11.702Z,20.40
2017-05-19T02:24:40.018Z,20.50
2017-05-19T02:27:08.341Z,20.40
2017-05-19T02:29:36.660Z,20.50
2017-05-19T02:32:05.705Z,20.50
2017-05-19T02:34:34.012Z,20.40
2017-05-19T02:37:02.332Z,20.20
2017-05-19T02:39:30.636Z,20.20
2017-05-19T02:41:58.950Z,20.30
2017-05-19T02:44:27.287Z,20.40
2017-05-19T02:46:55.601Z,20.40
2017-05-19T02:49:23.921Z,20.30
2017-05-19T02:51:52.231Z,20.30
2017-05-19T02:54:20.546Z,20.10
2017-05-19T02:56:49.596Z,20.10
2017-05-19T02:59:17.920Z,20.20
2017-05-19T03:01:46.973Z,20.20
2017-05-19T03:04:15.281Z,20.30
2017-05-19T03:06:44.344Z,20.30
2017-05-19T03:09:12.661Z,20.20
2017-05-19T03:11:41.715Z,20.30
2017-05-19T03:14:10.043Z,20.20
2017-05-19T03:16:38.351Z,20.30
2017-05-19T03:19:06.658Z,20.40
2017-05-19T03:21:34.978Z,20.30
2017-05-19T03:24:03.291Z,20.20
2017-05-19T03:26:31.603Z,20.00
2017-05-19T03:29:00.708Z,19.90
2017-05-19T03:31:29.788Z,20.10
2017-05-19T03:33:58.099Z,20.00
2017-05-19T03:36:26.784Z,20.10
2017-05-19T03:38:55.096Z,20.00
2017-05-19T03:41:23.411Z,20.10
2017-05-19T03:43:52.522Z,20.30
2017-05-19T03:46:21.572Z,20.40
2017-05-19T03:48:49.879Z,20.60
2017-05-19T03:51:18.937Z,20.50
2017-05-19T03:53:47.253Z,20.30
2017-05-19T03:56:16.309Z,20.10
2017-05-19T03:58:44.627Z,20.30
2017-05-19T04:01:13.687Z,20.30
2017-05-19T04:03:42.001Z,20.30
2017-05-19T04:06:10.323Z,20.40
2017-05-19T04:08:38.632Z,20.60
2017-05-19T04:11:06.952Z,20.50
2017-05-19T04:13:35.269Z,20.50
2017-05-19T04:16:03.580Z,20.50
2017-05-19T04:18:32.619Z,20.40
2017-05-19T04:21:00.944Z,20.60
2017-05-19T04:23:29.993Z,20.50
2017-05-19T04:25:58.311Z,20.50
2017-05-19T04:28:27.372Z,20.40
2017-05-19T04:30:55.682Z,20.50
2017-05-19T04:33:24.735Z,20.50
2017-05-19T04:35:53.048Z,20.40
2017-05-19T04:38:22.111Z,20.00
2017-05-19T04:40:50.421Z,20.00
2017-05-19T04:43:19.483Z,20.00
2017-05-19T04:45:47.792Z,20.10
2017-05-19T04:48:16.851Z,20.10
2017-05-19T04:50:45.167Z,20.00
2017-05-19T04:53:14.220Z,20.00
2017-05-19T04:55:42.527Z,20.20
2017-05-19T04:58:10.895Z,20.20
2017-05-19T05:00:39.212Z,20.20
2017-05-19T05:03:07.524Z,20.20
2017-05-19T05:05:35.851Z,20.10
2017-05-19T05:08:04.925Z,20.20
2017-05-19T05:10:33.240Z,20.00
2017-05-19T05:13:01.580Z,20.00
2017-05-19T05:15:29.948Z,20.10
2017-05-19T05:17:58.257Z,20.10
2017-05-19T05:20:26.583Z,20.30
2017-05-19T05:22:54.894Z,20.50
2017-05-19T05:25:23.954Z,20.30
2017-05-19T05:27:52.273Z,20.20
2017-05-19T05:30:21.389Z,20.30
2017-05-19T05:32:49.702Z,20.50
2017-05-19T05:35:18.019Z,20.40
2017-05-19T05:37:47.068Z,20.50
2017-05-19T05:40:15.385Z,20.70
2017-05-19T05:42:44.451Z,20.90
2017-05-19T05:45:12.765Z,21.00
2017-05-19T05:47:41.814Z,21.20
2017-05-19T05:50:10.187Z,20.90
2017-05-19T05:52:38.485Z,21.10
2017-05-19T05:55:06.798Z,21.10
2017-05-19T05:57:35.117Z,20.90
2017-05-19T06:00:03.438Z,20.90
2017-05-19T06:02:32.497Z,21.00
2017-05-19T06:05:00.816Z,21.00
2017-05-19T06:07:29.867Z,20.90
2017-05-19T06:09:58.171Z,21.10
2017-05-19T06:12:26.488Z,21.30
2017-05-19T06:14:54.807Z,21.30
2017-05-19T06:17:23.112Z,21.50
2017-05-19T06:19:52.179Z,21.60
2017-05-19T06:22:20.488Z,21.60
2017-05-19T06:24:50.560Z,21.50
2017-05-19T06:27:19.039Z,21.70
2017-05-19T06:29:47.358Z,21.80
2017-05-19T06:32:16.424Z,21.90
2017-05-19T06:34:44.719Z,22.10
2017-05-19T06:37:13.777Z,22.10
2017-05-19T06:39:42.078Z,22.30
2017-05-19T06:42:10.387Z,22.00
2017-05-19T06:44:38.694Z,22.00
2017-05-19T06:47:07.007Z,22.20
2017-05-19T06:49:35.298Z,22.20
2017-05-19T06:52:04.336Z,22.30
2017-05-19T06:54:32.640Z,22.40
2017-05-19T06:57:00.933Z,22.40
2017-05-19T06:59:29.234Z,22.50
2017-05-19T07:01:57.547Z,22.80
2017-05-19T07:04:25.844Z,22.90
2017-05-19T07:06:54.150Z,22.90
2017-05-19T07:09:23.200Z,22.90
2017-05-19T07:11:51.724Z,22.80
2017-05-19T07:14:20.786Z,22.90
2017-05-19T07:16:49.094Z,22.90
2017-05-19T07:19:18.135Z,22.90
2017-05-19T07:21:46.431Z,23.00
2017-05-19T07:24:14.766Z,23.00
2017-05-19T07:26:43.068Z,23.10
2017-05-19T07:29:11.375Z,23.20
2017-05-19T07:31:39.693Z,23.30
2017-05-19T07:34:07.989Z,23.20
2017-05-19T07:36:36.282Z,23.40
2017-05-19T07:39:04.602Z,23.60
2017-05-19T07:41:33.653Z,23.30
2017-05-19T07:44:01.946Z,23.50
2017-05-19T07:46:30.238Z,23.40
2017-05-19T07:48:58.536Z,23.40
2017-05-19T07:51:27.579Z,23.30
2017-05-19T07:53:55.879Z,23.50
2017-05-19T07:56:24.171Z,23.80
2017-05-19T07:58:53.211Z,23.90
2017-05-19T08:01:21.530Z,23.90
2017-05-19T08:03:49.821Z,24.00
2017-05-19T08:06:18.850Z,24.20
2017-05-19T08:08:47.146Z,24.60
2017-05-19T08:11:15.442Z,24.60
2017-05-19T08:13:43.745Z,24.70
2017-05-19T08:16:12.789Z,24.80
2017-05-19T08:18:41.078Z,24.80
2017-05-19T08:21:09.382Z,24.70
2017-05-19T08:23:38.427Z,24.90
2017-05-19T08:26:06.718Z,24.70
2017-05-19T08:28:35.010Z,24.70
2017-05-19T08:31:03.315Z,25.10
2017-05-19T08:33:32.350Z,25.10
2017-05-19T08:36:00.645Z,25.20
2017-05-19T08:38:28.959Z,25.30
2017-05-19T08:40:57.991Z,25.30
2017-05-19T08:43:26.327Z,25.20
2017-05-19T08:45:55.374Z,25.50
2017-05-19T08:48:23.667Z,25.60
2017-05-19T08:50:51.962Z,25.70
2017-05-19T08:53:20.259Z,25.80
2017-05-19T08:55:49.285Z,25.80
2017-05-19T08:58:17.577Z,25.60
2017-05-19T09:00:45.881Z,26.00
2017-05-19T09:03:14.175Z,26.20
2017-05-19T09:05:43.215Z,26.00
2017-05-19T09:08:11.518Z,26.00
2017-05-19T09:10:39.809Z,26.10
2017-05-19T09:13:08.842Z,26.20
2017-05-19T09:15:37.145Z,26.60
2017-05-19T09:18:05.438Z,26.70
2017-05-19T09:20:34.166Z,26.70
2017-05-19T09:23:02.466Z,26.70
2017-05-19T09:25:30.766Z,26.70
2017-05-19T09:27:59.057Z,27.00
2017-05-19T09:30:27.366Z,26.70
2017-05-19T09:32:55.662Z,26.60
2017-05-19T09:35:23.960Z,27.00
2017-05-19T09:37:52.258Z,27.10
2017-05-19T09:40:20.547Z,27.30
2017-05-19T09:42:48.840Z,27.10
2017-05-19T09:45:17.882Z,27.20
2017-05-19T09:47:46.166Z,27.20
2017-05-19T09:50:14.581Z,27.40
2017-05-19T09:52:43.623Z,27.40
2017-05-19T09:55:11.914Z,27.50
2017-05-19T09:57:40.207Z,27.60
2017-05-19T10:00:08.524Z,27.90
2017-05-19T10:02:36.826Z,28.10
2017-05-19T10:05:05.118Z,28.20
2017-05-19T10:07:33.419Z,28.50
2017-05-19T10:10:01.705Z,28.40
2017-05-19T10:12:30.759Z,27.90
2017-05-19T10:14:59.087Z,27.80
2017-05-19T10:17:28.129Z,28.00
2017-05-19T10:19:56.419Z,28.00
2017-05-19T10:22:24.729Z,28.50
2017-05-19T10:24:53.758Z,28.80
2017-05-19T10:27:22.053Z,28.70
2017-05-19T10:29:50.449Z,28.40
2017-05-19T10:32:18.742Z,28.60
2017-05-19T10:34:47.033Z,28.90
2017-05-19T10:37:16.075Z,28.70
2017-05-19T10:39:44.380Z,29.10
2017-05-19T10:42:12.671Z,29.20
2017-05-19T10:44:41.710Z,29.30
2017-05-19T10:47:10.002Z,29.30
2017-05-19T10:49:38.305Z,29.30
2017-05-19T10:52:07.383Z,29.20
2017-05-19T10:54:35.678Z,29.40
2017-05-19T10:57:03.970Z,29.50
2017-05-19T10:59:33.009Z,29.70
2017-05-19T11:02:01.314Z,29.80
2017-05-19T11:04:29.605Z,30.00
2017-05-19T11:06:57.916Z,30.30
2017-05-19T11:09:26.227Z,30.20
2017-05-19T11:11:54.529Z,29.60
2017-05-19T11:14:22.830Z,29.80
2017-05-19T11:16:51.863Z,29.80
2017-05-19T11:19:20.155Z,29.80
2017-05-19T11:21:48.478Z,29.80
2017-05-19T11:24:16.776Z,29.50
2017-05-19T11:26:45.062Z,29.80
2017-05-19T11:29:13.374Z,30.00
2017-05-19T11:31:41.689Z,30.20
2017-05-19T11:34:10.017Z,30.50
2017-05-19T11:36:38.319Z,30.50
2017-05-19T11:39:07.358Z,30.50
2017-05-19T11:41:35.662Z,30.30
2017-05-19T11:44:04.052Z,30.60
2017-05-19T11:46:32.359Z,30.70
2017-05-19T11:49:01.397Z,30.60
2017-05-19T11:51:29.710Z,30.90
2017-05-19T11:53:58.751Z,30.90
2017-05-19T11:56:27.045Z,30.90
2017-05-19T11:58:55.547Z,31.10
2017-05-19T12:01:23.837Z,31.10
2017-05-19T12:03:52.130Z,31.00
2017-05-19T12:06:21.174Z,31.10
2017-05-19T12:08:49.470Z,31.30
2017-05-19T12:11:17.810Z,31.40
2017-05-19T12:13:46.162Z,31.60
2017-05-19T12:16:15.181Z,31.60
2017-05-19T12:18:43.475Z,31.50
2017-05-19T12:21:11.775Z,31.50
2017-05-19T12:23:40.070Z,31.80
2017-05-19T12:26:09.111Z,31.90
2017-05-19T12:28:37.416Z,32.20
2017-05-19T12:31:05.711Z,32.50
2017-05-19T12:33:34.745Z,32.40
2017-05-19T12:36:03.052Z,32.30
2017-05-19T12:38:31.347Z,32.30
2017-05-19T12:40:59.642Z,32.30
2017-05-19T12:43:28.689Z,32.30
2017-05-19T12:45:56.990Z,32.60
2017-05-19T12:48:25.336Z,32.00
2017-05-19T12:50:53.634Z,31.90
2017-05-19T12:53:21.953Z,32.00
2017-05-19T12:55:50.281Z,32.10
2017-05-19T12:58:18.587Z,32.40
2017-05-19T13:00:47.644Z,32.40
2017-05-19T13:03:15.978Z,32.60
2017-05-19T13:05:44.290Z,32.70
2017-05-19T13:08:12.598Z,32.70
2017-05-19T13:10:40.903Z,32.50
2017-05-19T13:13:09.968Z,32.60
2017-05-19T13:15:38.281Z,32.50
2017-05-19T13:18:06.602Z,32.50
2017-05-19T13:20:34.912Z,32.40
2017-05-19T13:23:03.966Z,32.50
2017-05-19T13:25:32.277Z,32.60
2017-05-19T13:28:01.342Z,32.70
2017-05-19T13:30:29.648Z,32.60
2017-05-19T13:32:57.948Z,32.80
2017-05-19T13:35:26.388Z,32.70
2017-05-19T13:37:54.704Z,32.90
2017-05-19T13:40:23.012Z,32.90
2017-05-19T13:42:51.324Z,33.00
2017-05-19T13:45:20.805Z,33.00
2017-05-19T13:47:49.237Z,33.10
2017-05-19T13:50:18.291Z,33.10
2017-05-19T13:52:46.596Z,33.60
2017-05-19T13:55:15.654Z,33.70
2017-05-19T13:57:43.965Z,33.70
2017-05-19T14:00:13.007Z,33.70
2017-05-19T14:02:41.310Z,33.80
2017-05-19T14:05:09.699Z,33.80
2017-05-19T14:07:38.003Z,33.80
2017-05-19T14:10:07.052Z,34.00
2017-05-19T14:12:35.374Z,34.10
2017-05-19T14:15:04.421Z,34.10
2017-05-19T14:17:32.724Z,34.00
2017-05-19T14:20:01.033Z,33.80
2017-05-19T14:22:29.340Z,33.80
2017-05-19T14:24:57.644Z,33.80
2017-05-19T14:27:25.960Z,34.10
2017-05-19T14:29:54.283Z,34.20
2017-05-19T14:32:22.588Z,34.40
2017-05-19T14:34:51.640Z,34.80
2017-05-19T14:37:19.946Z,34.70
2017-05-19T14:39:48.244Z,34.70
2017-05-19T14:42:17.300Z,34.60
2017-05-19T14:44:45.601Z,34.10
2017-05-19T14:47:13.907Z,34.20
2017-05-19T14:49:42.225Z,34.30
2017-05-19T14:52:10.527Z,34.60
2017-05-19T14:54:38.831Z,34.00
2017-05-19T14:57:07.156Z,33.80
2017-05-19T14:59:35.463Z,34.30
2017-05-19T15:02:03.768Z,34.30
2017-05-19T15:04:32.084Z,34.30
2017-05-19T15:07:00.392Z,34.00
2017-05-19T15:09:28.694Z,33.80
2017-05-19T15:11:57.004Z,33.80
2017-05-19T15:14:25.312Z,34.00
2017-05-19T15:16:53.615Z,33.70
2017-05-19T15:19:22.660Z,33.70
2017-05-19T15:21:50.964Z,34.10
2017-05-19T15:25:00.931Z,34.30
2017-05-19T15:27:29.244Z,34.50
2017-05-19T15:29:57.563Z,34.90
2017-05-19T15:32:25.880Z,34.80
2017-05-19T15:34:54.193Z,34.70
2017-05-19T15:37:22.508Z,34.50
2017-05-19T15:39:50.851Z,34.80
2017-05-19T15:42:19.156Z,35.60
2017-05-19T15:44:47.467Z,36.50
2017-05-19T15:47:15.780Z,36.70
2017-05-19T15:49:44.094Z,36.20
2017-05-19T15:52:12.411Z,35.70
2017-05-19T15:54:40.742Z,35.40
2017-05-19T15:57:09.109Z,34.90
2017-05-19T15:59:37.439Z,34.60
2017-05-19T16:02:05.753Z,34.30
2017-05-19T16:04:34.077Z,34.00
2017-05-19T16:07:02.419Z,33.50
2017-05-19T16:09:30.738Z,33.10
2017-05-19T16:11:59.045Z,32.90
2017-05-19T16:14:27.350Z,32.80
2017-05-19T16:16:55.668Z,32.80
2017-05-19T16:19:23.977Z,32.80
2017-05-19T16:21:52.284Z,33.00
2017-05-19T16:24:20.628Z,33.00
2017-05-19T16:26:48.936Z,32.90
2017-05-19T16:29:17.249Z,32.80
2017-05-19T16:31:45.568Z,32.50
2017-05-19T16:34:13.875Z,32.50
2017-05-19T16:36:42.980Z,32.30
2017-05-19T16:39:11.303Z,32.00
2017-05-19T16:41:39.607Z,31.90
2017-05-19T16:44:07.912Z,31.80
2017-05-19T16:46:36.238Z,31.30
2017-05-19T16:49:04.553Z,31.00
2017-05-19T16:51:32.864Z,30.70
2017-05-19T16:54:01.296Z,30.50
2017-05-19T16:56:29.595Z,30.40
2017-05-19T16:58:57.901Z,30.40
2017-05-19T17:01:26.225Z,30.20
2017-05-19T17:03:54.536Z,30.10
2017-05-19T17:06:22.847Z,30.10
2017-05-19T17:08:51.168Z,30.00
2017-05-19T17:11:19.543Z,29.70
2017-05-19T17:13:47.848Z,29.50
2017-05-19T17:16:16.177Z,29.40
2017-05-19T17:18:44.486Z,29.30
2017-05-19T17:21:12.793Z,29.30
2017-05-19T17:23:41.117Z,29.20
2017-05-19T17:26:09.425Z,29.10
2017-05-19T17:28:37.740Z,29.00
2017-05-19T17:31:06.059Z,29.10
2017-05-19T17:33:34.376Z,29.10
2017-05-19T17:36:02.681Z,29.20
2017-05-19T17:38:31.030Z,29.20
2017-05-19T17:40:59.339Z,29.20
2017-05-19T17:43:27.640Z,29.20
2017-05-19T17:45:55.960Z,29.20
2017-05-19T17:48:24.272Z,29.00
2017-05-19T17:50:52.596Z,29.20
2017-05-19T17:53:20.928Z,29.20
2017-05-19T17:55:49.249Z,29.00
2017-05-19T17:58:17.592Z,28.90
2017-05-19T18:00:45.911Z,28.70
2017-05-19T18:03:14.226Z,28.60
2017-05-19T18:05:42.533Z,28.50
2017-05-19T18:08:10.853Z,28.40
2017-05-19T18:10:39.158Z,28.40
2017-05-19T18:13:07.468Z,28.40
2017-05-19T18:15:35.819Z,28.40
2017-05-19T18:18:04.128Z,28.10
2017-05-19T18:20:32.451Z,28.00
2017-05-19T18:23:00.828Z,28.20
2017-05-19T18:25:29.149Z,28.30
2017-05-19T18:27:57.460Z,28.40
2017-05-19T18:30:25.780Z,28.50
2017-05-19T18:32:54.084Z,28.40
2017-05-19T18:35:22.415Z,28.20
2017-05-19T18:37:50.731Z,27.90
2017-05-19T18:40:19.055Z,27.60
2017-05-19T18:42:47.380Z,27.40
2017-05-19T18:45:15.687Z,27.50
2017-05-19T18:47:44.009Z,27.70
2017-05-19T18:50:12.316Z,27.40
2017-05-19T18:52:40.632Z,27.50
2017-05-19T18:55:08.960Z,27.50
2017-05-19T18:57:37.273Z,27.50
2017-05-19T19:00:05.595Z,27.50
2017-05-19T19:02:33.908Z,27.50
2017-05-19T19:05:02.216Z,27.40
2017-05-19T19:07:30.544Z,27.30
2017-05-19T19:09:58.857Z,27.10
2017-05-19T19:12:27.174Z,27.00
2017-05-19T19:14:55.497Z,26.70
2017-05-19T19:17:23.831Z,26.70
2017-05-19T19:19:52.140Z,26.30
2017-05-19T19:22:20.459Z,26.40
2017-05-19T19:24:48.772Z,26.60
2017-05-19T19:27:17.092Z,26.90
2017-05-19T19:29:45.423Z,26.80
2017-05-19T19:32:13.728Z,26.50
2017-05-19T19:34:42.036Z,26.40
2017-05-19T19:37:10.352Z,26.60
2017-05-19T19:39:38.659Z,26.60
2017-05-19T19:42:06.968Z,26.40
2017-05-19T19:44:35.289Z,26.30
2017-05-19T19:47:03.596Z,26.50
2017-05-19T19:49:31.909Z,26.80
2017-05-19T19:52:00.224Z,26.50
2017-05-19T19:54:28.536Z,26.50
2017-05-19T19:56:56.844Z,26.70
2017-05-19T19:59:25.184Z,26.50
2017-05-19T20:01:53.505Z,26.30
2017-05-19T20:04:21.812Z,26.00
2017-05-19T20:06:50.136Z,25.90
2017-05-19T20:09:18.439Z,25.90
2017-05-19T20:11:46.752Z,26.10
2017-05-19T20:14:15.068Z,26.20
2017-05-19T20:16:43.379Z,26.20
2017-05-19T20:19:11.690Z,26.20
2017-05-19T20:21:40.128Z,25.90
2017-05-19T20:24:08.448Z,26.00
2017-05-19T20:26:36.763Z,25.90
2017-05-19T20:29:05.092Z,26.00
2017-05-19T20:31:33.397Z,26.10
2017-05-19T20:34:01.711Z,26.10
2017-05-19T20:36:30.035Z,26.00
2017-05-19T20:38:58.392Z,25.90
2017-05-19T20:41:26.715Z,25.70
2017-05-19T20:43:55.038Z,25.70
2017-05-19T20:46:23.347Z,25.80
2017-05-19T20:48:51.696Z,25.80
2017-05-19T20:51:20.015Z,25.90
2017-05-19T20:53:48.326Z,26.10
2017-05-19T20:56:16.631Z,26.10
2017-05-19T20:58:44.943Z,26.10
2017-05-19T21:01:13.254Z,26.10
2017-05-19T21:03:41.573Z,26.00
2017-05-19T21:06:09.899Z,26.10
2017-05-19T21:08:38.214Z,26.20
2017-05-19T21:11:06.528Z,26.00
2017-05-19T21:13:34.855Z,25.80
2017-05-19T21:16:03.175Z,25.80
2017-05-19T21:18:31.491Z,25.50
2017-05-19T21:20:59.800Z,25.30
2017-05-19T21:23:28.155Z,25.20
2017-05-19T21:25:56.460Z,25.20
2017-05-19T21:28:25.753Z,25.10
2017-05-19T21:30:54.073Z,24.90
2017-05-19T21:33:22.394Z,25.10
2017-05-19T21:35:50.717Z,25.30
2017-05-19T21:38:19.037Z,25.30
2017-05-19T21:40:47.352Z,25.50
2017-05-19T21:43:15.689Z,25.50
2017-05-19T21:45:44.084Z,25.30
2017-05-19T21:48:12.404Z,25.30
2017-05-19T21:50:41.941Z,25.10
2017-05-19T21:53:14.681Z,25.10
2017-05-19T21:55:44.163Z,25.10
2017-05-19T21:58:12.476Z,25.00
2017-05-19T22:00:42.830Z,24.80
2017-05-19T22:03:12.199Z,24.70
2017-05-19T22:05:41.226Z,24.70
2017-05-19T22:08:09.532Z,24.70
2017-05-19T22:10:40.030Z,24.60
2017-05-19T22:13:08.341Z,24.60
2017-05-19T22:15:36.664Z,24.60
2017-05-19T22:18:04.969Z,24.80
2017-05-19T22:20:33.303Z,25.00
2017-05-19T22:23:01.617Z,25.00
2017-05-19T22:25:29.925Z,24.90
2017-05-19T22:27:58.243Z,24.90
2017-05-19T22:30:26.557Z,25.00
2017-05-19T22:32:54.860Z,25.10
2017-05-19T22:35:23.182Z,25.10
2017-05-19T22:37:51.495Z,25.20
2017-05-19T22:40:19.804Z,25.20
2017-05-19T22:42:48.157Z,25.20
2017-05-19T22:45:16.479Z,25.10
2017-05-19T22:47:44.788Z,25.10
2017-05-19T22:50:13.115Z,25.00
2017-05-19T22:52:41.432Z,24.80
2017-05-19T22:55:09.764Z,24.70
2017-05-19T22:57:38.103Z,24.60
2017-05-19T23:00:06.419Z,24.30
2017-05-19T23:02:34.740Z,24.10
2017-05-19T23:05:03.063Z,23.90
2017-05-19T23:07:31.377Z,23.60
2017-05-19T23:09:59.697Z,23.60
2017-05-19T23:12:28.024Z,23.70
2017-05-19T23:14:56.335Z,23.70
2017-05-19T23:17:24.655Z,23.80
2017-05-19T23:19:52.985Z,23.70
2017-05-19T23:22:21.304Z,23.50
2017-05-19T23:24:49.637Z,23.50
2017-05-19T23:27:17.960Z,23.20
2017-05-19T23:29:46.271Z,23.30
2017-05-19T23:32:14.579Z,23.10
2017-05-19T23:34:42.905Z,23.10
2017-05-19T23:37:11.224Z,23.30
2017-05-19T23:39:39.536Z,23.20
2017-05-19T23:42:07.873Z,23.20
2017-05-19T23:44:36.184Z,22.90
2017-05-19T23:47:04.509Z,22.80
2017-05-19T23:49:32.831Z,22.80
2017-05-19T23:52:01.152Z,22.90
2017-05-19T23:54:29.467Z,23.00
2017-05-19T23:56:57.847Z,22.90
2017-05-19T23:59:26.168Z,23.00
